^^

Nearby METAR Reports

METAR (Meteorological Aerodrome Report) are Airport generated local weather condition reports for use, predominantly by pilots, these reports are also used as part of compliment of data sets required for Chatteris Weathers prediction software - WxSim.

EGUN - Mildenhall Raf, United Kingdom
Distance from station: ESE 19mi, 31km
Updated: 21/07/2018 13:56
Partly cloudy
Partly cloudy
 Wind from WSW
Wind: WSW 7 mph , 11 km/h
Temperature: 26°C
Dew Point: 13°C
Humidity: 45%
Barometer: 1013.2 hPa
Clouds: Partly cloudy
Visibility: 6 miles , 10 km
Cloud details: Partly cloudy 1433 m
Partly cloudy 1676 m
2018/07/21 12:56 EGUN 211256Z AUTO 24006KT 9999 SCT047 SCT055 26/13 A2992 RMK AO2 SLP135 T02610132 $
EGSC - Cambridge, United Kingdom
Distance from station: SSE 20mi, 32km
Updated: 21/07/2018 14:20
Partly cloudy
Partly cloudy
 Wind from NW
Wind: NW 8 mph , 13 km/h
Temperature: 26°C
Dew Point: 12°C
Humidity: 42%
Barometer: 1013 hPa
Clouds: Partly cloudy
Visibility: 6 miles , 10 km
Cloud details: Partly cloudy 1463 m
2018/07/21 13:20 EGSC 211320Z 31007KT 270V030 9999 SCT048 26/12 Q1013
 
EGUL - Lakenheath Raf, United Kingdom
Distance from station: E 22mi, 36km
Updated: 21/07/2018 13:56
Clear
Clear
 Wind from NW
Wind: NW 8 mph , 13 km/h
Temperature: 26°C
Dew Point: 13°C
Humidity: 45%
Barometer: 1013.2 hPa
Clouds: Clear
Visibility: 6 miles , 10 km
2018/07/21 12:56 EGUL 211256Z AUTO 31007KT 9999 CLR 26/13 A2992 RMK AO2 SLP135 T02610129 $
EGXT - Wittering Raf, United Kingdom
Distance from station: WNW 24mi, 38km
Updated: 21/07/2018 13:50
Partly cloudy
Partly cloudy
 Wind from W
Wind: W 8 mph , 13 km/h
Temperature: 25°C
Dew Point: 13°C
Humidity: 47%
Barometer: 1013 hPa
Clouds: Partly cloudy
Visibility: 6 miles , 10 km
Cloud details: Partly cloudy 1250 m
2018/07/21 12:50 EGXT 211250Z AUTO 26007KT 9999 SCT041/// 25/13 Q1013
 
EGYH - Holbeach (aut), United Kingdom
Distance from station: N 27mi, 44km
Updated: 19/07/2018 22:50
NOT Current
Clear
Clear
 Wind from S
Wind: S 12 mph , 19 km/h
Temperature: 18°C
Dew Point: 8°C
Humidity: 52%
Barometer: 1016 hPa
Summary: Clear
Visibility: greater than 7 miles , 10 km
2018/07/19 21:50 EGYH 192150Z 17010KT CAVOK 18/08 Q1016 BLU
EGSS - Stansted Airport, United Kingdom
Distance from station: SE 11mi, 18km
Updated: 21/07/2018 14:20
Clear
Clear
 Wind from NW
Wind: NW 6 mph , 9 km/h
Temperature: 27°C
Heat Index: 27°C
Dew Point: 13°C
Humidity: 42%
Barometer: 1014 hPa
Clouds: Clear
Visibility: 6 miles , 10 km
2018/07/21 13:20 EGSS 211320Z AUTO 32005KT 260V020 9999 NCD 27/13 Q1014
 
EGGW - Luton Airport, United Kingdom
Distance from station: WSW 19mi, 31km
Updated: 21/07/2018 14:20
Clear
Clear
 Wind from W
Wind: W 7 mph , 11 km/h
Temperature: 26°C
Dew Point: 13°C
Humidity: 45%
Barometer: 1014 hPa
Clouds: Clear
Visibility: 6 miles , 10 km
2018/07/21 13:20 EGGW 211320Z AUTO 28006KT 220V320 9999 NCD 26/13 Q1014
EGLL - London/Heathrow, United Kingdom
Distance from station: SSW 41mi, 66km
Updated: 21/07/2018 14:20
Overcast
Overcast
 Wind from varies
Wind: varies 2 mph , 4 km/h
Temperature: 25°C
Dew Point: 12°C
Humidity: 44%
Barometer: 1014 hPa
Clouds: Overcast
Visibility: 6 miles , 10 km
Cloud details: Overcast 1463 m
2018/07/21 13:20 EGLL 211320Z AUTO VRB02KT 9999 OVC048 25/12 Q1014 NOSIG
 
EGKK - London/Gatwick A, United Kingdom
Distance from station: S 60mi, 97km
Updated: 21/07/2018 14:20
Few Clouds
Few Clouds
 Wind from varies
Wind: varies 3 mph , 6 km/h
Temperature: 25°C
Dew Point: 13°C
Humidity: 47%
Barometer: 1014 hPa
Clouds: Few Clouds
Visibility: 6 miles , 10 km
Cloud details: Few Clouds 1463 m
2018/07/21 13:20 EGKK 211320Z VRB03KT 9999 FEW048 25/13 Q1014
EGUY - Wyton Raf, United Kingdom
Distance from station: SW 11mi, 18km
Updated: 04/10/2015 09:50
NOT Current
Haze, Clear
Haze, Clear
 Wind from SSE
Wind: SSE 2 mph , 4 km/h
Temperature: 11°C
Dew Point: 7°C
Humidity: 77%
Barometer: 1014 hPa
Summary: Haze
Clouds: Clear
Visibility: 4 miles , 6 km
2015/10/04 08:50 EGUY 040850Z 15002KT 6000 HZ SKC 11/07 Q1014 WHT

Met Office METAR data link, decoding METAR data code.